Weather at Tomah Memorial Hospital Heliport

Public forecast

Using degrees Fahrenheit for public forecast. Weather courtesy of forecast.io.

Closest aviation weather report (METAR) to Tomah Memorial Hospital Heliport

Closest report is Sparta Fort Mc Coy Airport, 9.7 nm (18.0 km) W. Retrieved 2021/06/13 18:35 UTC (0 seconds ago):

KCMY 131835Z AUTO 27005KT 10SM 30/08 A3002 RMK AO2 T03000080

Closest aviation forecast (TAF) to Tomah Memorial Hospital Heliport

Closest forecast is Volk Field, 11.7 nm (21.6 km) ESE. Retrieved 2021/06/13 17:10 UTC (1 hour ago):

TAF KVOK 131700Z 1317/1423 VRB06KT 9999 FEW120 QNH3002INS BECMG 1413/1414 34015G20KT 9999 FEW070 QNH2998INS BECMG 1422/1423 32008KT 9999 FEW055 SCT080 QNH2998INS TX30/1322Z TN16/1411Z LAST NO AMDS AFT 1323 NEXT 1409